METAR Reports From Nearby Airports

 

KLUD - Decatur, Texas, USA
Distance from Wildwood: ESE 5mi, 8km
Mise à jour: Apr 18, 2019 11:35pm
clair
clair
 Wind from O
Vent: O 6 mph , 9 km/h
Température: 52°F , 11°C
Point de rosée: 46°F , 8°C
Humidité: 82%
Baromètre: 29.99 inHg , 1015.6 hPa
Clouds: clair
Visibility: 10 miles , 16 km
2019/04/19 04:35 KLUD 190435Z AUTO 27005KT 10SM CLR 11/08 A2999 RMK AO2 T01100075
KXBP - Bridgeport, Texas, USA
Distance from Wildwood: OSO 11mi, 18km
Mise à jour: Apr 18, 2019 11:35pm
clair
clair
 Wind from ONO
Vent: ONO 6 mph , 9 km/h
Température: 54°F , 12°C
Point de rosée: 45°F , 7°C
Humidité: 72%
Baromètre: 30.02 inHg , 1016.6 hPa
Clouds: clair
Visibility: 10 miles , 16 km
2019/04/19 04:35 KXBP 190435Z AUTO 29005KT 10SM CLR 12/07 A3002 RMK AO2 T01190071
 
K0F2 - Bowie, Texas, USA
Distance from Wildwood: NNO 24mi, 39km
Mise à jour: Apr 18, 2019 11:35pm
clair
clair
 Wind from O
Vent: O 6 mph , 9 km/h
Température: 52°F , 11°C
Point de rosée: 45°F , 7°C
Humidité: 77%
Baromètre: 30.00 inHg , 1015.9 hPa
Clouds: clair
Visibility: 10 miles , 16 km
2019/04/19 04:35 K0F2 190435Z AUTO 27005KT 10SM CLR 11/07 A3000 RMK AO2 T01060068
KDTO - Denton, Texas, USA
Distance from Wildwood: E 27mi, 44km
Mise à jour: Apr 18, 2019 10:53pm
clair
clair
 Wind from NO
Vent: NO 7 mph , 11 km/h
Température: 54°F , 12°C
Point de rosée: 45°F , 7°C
Humidité: 72%
Baromètre: 29.96 inHg , 1014.6 hPa
Clouds: clair
Visibility: 10 miles , 16 km
2019/04/19 03:53 KDTO 190353Z AUTO 31006KT 10SM CLR 12/07 A2996 RMK AO2 SLP142 T01170072
 
KAFW - Ft Worth/Allianc, Texas, USA
Distance from Wildwood: SE 29mi, 46km
Mise à jour: Apr 18, 2019 10:53pm
Partly Cloudy
Partly Cloudy
 Wind from N
Vent: N 9 mph , 15 km/h
Température: 54°F , 12°C
Point de rosée: 45°F , 7°C
Humidité: 72%
Baromètre: 29.98 inHg , 1015.2 hPa
Clouds: Partly Cloudy
Visibility: 10 miles , 16 km
Cloud details: Few Clouds 10000 ft
Partly Cloudy 15000 ft
Partly Cloudy 19000 ft
2019/04/19 03:53 KAFW 190353Z 35008KT 10SM FEW100 SCT150 SCT190 12/07 A2998 RMK AO2 PK WND 36027/0300 SLP148 T01220072
KFTW - Fort Worth, Texas, USA
Distance from Wildwood: SSE 34mi, 55km
Mise à jour: Apr 18, 2019 10:53pm
clair
clair
 Wind from N
Vent: N 8 mph , 13 km/h
Température: 55°F , 13°C
Point de rosée: 46°F , 8°C
Humidité: 72%
Baromètre: 29.97 inHg , 1014.9 hPa
Clouds: clair
Visibility: 10 miles , 16 km
2019/04/19 03:53 KFTW 190353Z 35007KT 10SM CLR 13/08 A2997 RMK AO2 SLP145 T01280078
 
KNFW - Fort Worth Nas, Texas, USA
Distance from Wildwood: SSE 36mi, 58km
Mise à jour: Apr 18, 2019 11:52pm
clair
clair
 Wind from NO
Vent: NO 8 mph , 13 km/h
Température: 57°F , 14°C
Point de rosée: 46°F , 8°C
Humidité: 67%
Baromètre: 29.99 inHg , 1015.6 hPa
Clouds: clair
Visibility: 10 miles , 16 km
2019/04/19 04:52 KNFW 190452Z AUTO 32007KT 10SM CLR 14/08 A2999 RMK AO2 SLP140 T01390078 VISNO
KGLE - Gainesville, Texas, USA
Distance from Wildwood: NE 38mi, 61km
Mise à jour: Apr 18, 2019 11:35pm
clair
clair
 Wind from calm
Vent: calme
Température: 52°F , 11°C
Point de rosée: 43°F , 6°C
Humidité: 72%
Baromètre: 29.97 inHg , 1014.9 hPa
Clouds: clair
Visibility: 10 miles , 16 km
2019/04/19 04:35 KGLE 190435Z AUTO 00000KT 10SM CLR 11/06 A2997 RMK AO2 T01050062
 
KMWL - Mineral Wells, Texas, USA
Distance from Wildwood: SO 41mi, 65km
Mise à jour: Apr 18, 2019 10:53pm
clair
clair
 Wind from NNO
Vent: NNO 8 mph , 13 km/h
Température: 57°F , 14°C
Point de rosée: 43°F , 6°C
Humidité: 59%
Baromètre: 29.99 inHg , 1015.6 hPa
Clouds: clair
Visibility: 10 miles , 16 km
2019/04/19 03:53 KMWL 190353Z AUTO 34007KT 10SM CLR 14/06 A2999 RMK AO2 SLP149 T01390056
KDFW - Dallas/Ft Worth, Texas, USA
Distance from Wildwood: ESE 45mi, 73km
Mise à jour: Apr 18, 2019 10:53pm
Few Clouds
Few Clouds
 Wind from N
Vent: N 8 mph , 13 km/h
Température: 55°F , 13°C
Point de rosée: 46°F , 8°C
Humidité: 72%
Baromètre: 29.95 inHg , 1014.2 hPa
Clouds: Few Clouds
Visibility: 10 miles , 16 km
Cloud details: Few Clouds 7000 ft
Few Clouds 11000 ft
Few Clouds 25000 ft
2019/04/19 03:53 KDFW 190353Z 35007KT 10SM FEW070 FEW110 FEW250 13/08 A2995 RMK AO2 PK WND 36027/0257 RAE02 SLP137 P0000 T01280078